sensor_id;sensor_type;location;lat;lon;timestamp;temperature;humidity
33271;DHT22;53180;51.344;6.152;2023-04-03T00:01:23;1.40;86.90
33271;DHT22;53180;51.344;6.152;2023-04-03T00:03:53;1.30;86.80
33271;DHT22;53180;51.344;6.152;2023-04-03T00:06:22;1.30;86.80
33271;DHT22;53180;51.344;6.152;2023-04-03T00:08:51;1.30;87.00
33271;DHT22;53180;51.344;6.152;2023-04-03T00:11:20;1.30;86.90
33271;DHT22;53180;51.344;6.152;2023-04-03T00:13:48;1.30;87.00
33271;DHT22;53180;51.344;6.152;2023-04-03T00:16:16;1.20;87.10
33271;DHT22;53180;51.344;6.152;2023-04-03T00:18:45;1.20;87.10
33271;DHT22;53180;51.344;6.152;2023-04-03T00:21:14;1.20;87.20
33271;DHT22;53180;51.344;6.152;2023-04-03T00:23:43;1.20;86.80
33271;DHT22;53180;51.344;6.152;2023-04-03T00:26:11;1.10;86.70
33271;DHT22;53180;51.344;6.152;2023-04-03T00:28:40;1.00;86.40
33271;DHT22;53180;51.344;6.152;2023-04-03T00:31:09;0.90;86.50
33271;DHT22;53180;51.344;6.152;2023-04-03T00:33:37;0.80;86.70
33271;DHT22;53180;51.344;6.152;2023-04-03T00:36:07;0.80;86.80
33271;DHT22;53180;51.344;6.152;2023-04-03T00:38:37;0.80;86.80
33271;DHT22;53180;51.344;6.152;2023-04-03T00:41:06;0.80;86.90
33271;DHT22;53180;51.344;6.152;2023-04-03T00:43:35;0.80;87.00
33271;DHT22;53180;51.344;6.152;2023-04-03T00:46:03;0.70;86.80
33271;DHT22;53180;51.344;6.152;2023-04-03T00:48:36;0.70;86.70
33271;DHT22;53180;51.344;6.152;2023-04-03T00:51:09;0.70;86.90
33271;DHT22;53180;51.344;6.152;2023-04-03T00:53:46;0.70;87.00
33271;DHT22;53180;51.344;6.152;2023-04-03T00:56:18;0.70;87.20
33271;DHT22;53180;51.344;6.152;2023-04-03T00:58:51;0.70;87.20
33271;DHT22;53180;51.344;6.152;2023-04-03T01:01:23;0.70;87.20
33271;DHT22;53180;51.344;6.152;2023-04-03T01:03:53;0.70;87.30
33271;DHT22;53180;51.344;6.152;2023-04-03T01:06:24;0.70;87.30
33271;DHT22;53180;51.344;6.152;2023-04-03T01:08:56;0.60;87.40
33271;DHT22;53180;51.344;6.152;2023-04-03T01:11:24;0.70;87.40
33271;DHT22;53180;51.344;6.152;2023-04-03T01:13:53;0.60;87.30
33271;DHT22;53180;51.344;6.152;2023-04-03T01:16:22;0.60;87.10
33271;DHT22;53180;51.344;6.152;2023-04-03T01:18:50;0.60;87.30
33271;DHT22;53180;51.344;6.152;2023-04-03T01:21:45;0.60;87.40
33271;DHT22;53180;51.344;6.152;2023-04-03T01:24:41;0.60;87.50
33271;DHT22;53180;51.344;6.152;2023-04-03T01:27:10;0.60;87.50
33271;DHT22;53180;51.344;6.152;2023-04-03T01:29:40;0.50;87.60
33271;DHT22;53180;51.344;6.152;2023-04-03T01:32:11;0.50;87.60
33271;DHT22;53180;51.344;6.152;2023-04-03T01:34:40;0.50;87.70
33271;DHT22;53180;51.344;6.152;2023-04-03T01:37:08;0.50;87.80
33271;DHT22;53180;51.344;6.152;2023-04-03T01:39:36;0.60;87.80
33271;DHT22;53180;51.344;6.152;2023-04-03T01:42:05;0.50;87.70
33271;DHT22;53180;51.344;6.152;2023-04-03T01:44:33;0.50;87.80
33271;DHT22;53180;51.344;6.152;2023-04-03T01:47:02;0.50;87.70
33271;DHT22;53180;51.344;6.152;2023-04-03T01:49:34;0.50;87.70
33271;DHT22;53180;51.344;6.152;2023-04-03T01:52:03;0.50;87.80
33271;DHT22;53180;51.344;6.152;2023-04-03T01:54:31;0.50;87.80
33271;DHT22;53180;51.344;6.152;2023-04-03T01:57:00;0.50;87.70
33271;DHT22;53180;51.344;6.152;2023-04-03T01:59:28;0.40;87.70
33271;DHT22;53180;51.344;6.152;2023-04-03T02:01:56;0.40;87.70
33271;DHT22;53180;51.344;6.152;2023-04-03T02:04:25;0.40;87.90
33271;DHT22;53180;51.344;6.152;2023-04-03T02:06:55;0.40;87.90
33271;DHT22;53180;51.344;6.152;2023-04-03T02:09:23;0.40;87.90
33271;DHT22;53180;51.344;6.152;2023-04-03T02:11:53;0.40;87.90
33271;DHT22;53180;51.344;6.152;2023-04-03T02:14:21;0.40;87.70
33271;DHT22;53180;51.344;6.152;2023-04-03T02:16:50;0.40;87.90
33271;DHT22;53180;51.344;6.152;2023-04-03T02:19:18;0.40;88.10
33271;DHT22;53180;51.344;6.152;2023-04-03T02:21:47;0.30;87.60
33271;DHT22;53180;51.344;6.152;2023-04-03T02:24:17;0.30;87.70
33271;DHT22;53180;51.344;6.152;2023-04-03T02:26:45;0.30;88.20
33271;DHT22;53180;51.344;6.152;2023-04-03T02:29:13;0.30;88.20
33271;DHT22;53180;51.344;6.152;2023-04-03T02:31:42;0.30;88.20
33271;DHT22;53180;51.344;6.152;2023-04-03T02:34:10;0.30;88.10
33271;DHT22;53180;51.344;6.152;2023-04-03T02:36:38;0.30;88.10
33271;DHT22;53180;51.344;6.152;2023-04-03T02:39:07;0.30;88.00
33271;DHT22;53180;51.344;6.152;2023-04-03T02:41:37;0.30;88.00
33271;DHT22;53180;51.344;6.152;2023-04-03T02:44:06;0.30;88.30
33271;DHT22;53180;51.344;6.152;2023-04-03T02:46:36;0.40;88.40
33271;DHT22;53180;51.344;6.152;2023-04-03T02:49:05;0.40;88.50
33271;DHT22;53180;51.344;6.152;2023-04-03T02:51:33;0.50;88.60
33271;DHT22;53180;51.344;6.152;2023-04-03T02:54:01;0.50;88.70
33271;DHT22;53180;51.344;6.152;2023-04-03T02:56:30;0.60;88.70
33271;DHT22;53180;51.344;6.152;2023-04-03T02:59:00;0.60;88.70
33271;DHT22;53180;51.344;6.152;2023-04-03T03:01:28;0.70;88.80
33271;DHT22;53180;51.344;6.152;2023-04-03T03:03:59;0.80;88.70
33271;DHT22;53180;51.344;6.152;2023-04-03T03:06:28;0.90;88.50
33271;DHT22;53180;51.344;6.152;2023-04-03T03:08:56;0.90;88.40
33271;DHT22;53180;51.344;6.152;2023-04-03T03:11:24;1.00;88.30
33271;DHT22;53180;51.344;6.152;2023-04-03T03:13:53;1.00;88.40
33271;DHT22;53180;51.344;6.152;2023-04-03T03:16:22;1.10;88.10
33271;DHT22;53180;51.344;6.152;2023-04-03T03:18:51;1.20;88.10
33271;DHT22;53180;51.344;6.152;2023-04-03T03:21:19;1.20;87.80
33271;DHT22;53180;51.344;6.152;2023-04-03T03:23:47;1.20;87.80
33271;DHT22;53180;51.344;6.152;2023-04-03T03:26:16;1.20;87.70
33271;DHT22;53180;51.344;6.152;2023-04-03T03:28:44;1.30;87.60
33271;DHT22;53180;51.344;6.152;2023-04-03T03:31:13;1.30;87.40
33271;DHT22;53180;51.344;6.152;2023-04-03T03:33:43;1.40;87.20
33271;DHT22;53180;51.344;6.152;2023-04-03T03:36:11;1.40;87.10
33271;DHT22;53180;51.344;6.152;2023-04-03T03:38:40;1.40;86.90
33271;DHT22;53180;51.344;6.152;2023-04-03T03:41:08;1.50;86.70
33271;DHT22;53180;51.344;6.152;2023-04-03T03:43:36;1.50;86.70
33271;DHT22;53180;51.344;6.152;2023-04-03T03:46:05;1.50;86.60
33271;DHT22;53180;51.344;6.152;2023-04-03T03:48:33;1.50;86.70
33271;DHT22;53180;51.344;6.152;2023-04-03T03:51:03;1.50;86.50
33271;DHT22;53180;51.344;6.152;2023-04-03T03:53:31;1.50;86.30
33271;DHT22;53180;51.344;6.152;2023-04-03T03:56:00;1.50;86.10
33271;DHT22;53180;51.344;6.152;2023-04-03T03:58:28;1.50;86.20
33271;DHT22;53180;51.344;6.152;2023-04-03T04:00:56;1.50;86.20
33271;DHT22;53180;51.344;6.152;2023-04-03T04:03:25;1.50;86.20
33271;DHT22;53180;51.344;6.152;2023-04-03T04:05:53;1.50;86.10
33271;DHT22;53180;51.344;6.152;2023-04-03T04:08:23;1.50;86.20
33271;DHT22;53180;51.344;6.152;2023-04-03T04:10:52;1.50;86.10
33271;DHT22;53180;51.344;6.152;2023-04-03T04:13:21;1.40;86.10
33271;DHT22;53180;51.344;6.152;2023-04-03T04:15:49;1.40;86.20
33271;DHT22;53180;51.344;6.152;2023-04-03T04:18:17;1.40;86.30
33271;DHT22;53180;51.344;6.152;2023-04-03T04:20:47;1.40;86.20
33271;DHT22;53180;51.344;6.152;2023-04-03T04:23:16;1.40;86.10
33271;DHT22;53180;51.344;6.152;2023-04-03T04:25:47;1.40;85.80
33271;DHT22;53180;51.344;6.152;2023-04-03T04:28:16;1.40;86.00
33271;DHT22;53180;51.344;6.152;2023-04-03T04:30:45;1.40;85.80
33271;DHT22;53180;51.344;6.152;2023-04-03T04:33:13;1.40;85.80
33271;DHT22;53180;51.344;6.152;2023-04-03T04:35:42;1.40;86.00
33271;DHT22;53180;51.344;6.152;2023-04-03T04:38:10;1.40;85.60
33271;DHT22;53180;51.344;6.152;2023-04-03T04:40:38;1.30;85.40
33271;DHT22;53180;51.344;6.152;2023-04-03T04:43:09;1.40;85.40
33271;DHT22;53180;51.344;6.152;2023-04-03T04:45:41;1.40;85.20
33271;DHT22;53180;51.344;6.152;2023-04-03T04:48:09;1.40;85.40
33271;DHT22;53180;51.344;6.152;2023-04-03T04:50:38;1.40;85.40
33271;DHT22;53180;51.344;6.152;2023-04-03T04:53:06;1.40;85.40
33271;DHT22;53180;51.344;6.152;2023-04-03T04:55:35;1.40;85.20
33271;DHT22;53180;51.344;6.152;2023-04-03T04:58:04;1.30;85.20
33271;DHT22;53180;51.344;6.152;2023-04-03T05:00:33;1.40;85.10
33271;DHT22;53180;51.344;6.152;2023-04-03T05:03:02;1.30;84.90
33271;DHT22;53180;51.344;6.152;2023-04-03T05:05:30;1.40;84.90
33271;DHT22;53180;51.344;6.152;2023-04-03T05:07:59;1.30;85.00
33271;DHT22;53180;51.344;6.152;2023-04-03T05:10:27;1.30;84.90
33271;DHT22;53180;51.344;6.152;2023-04-03T05:12:55;1.40;85.00
33271;DHT22;53180;51.344;6.152;2023-04-03T05:15:24;1.30;84.90
33271;DHT22;53180;51.344;6.152;2023-04-03T05:17:53;1.40;85.00
33271;DHT22;53180;51.344;6.152;2023-04-03T05:20:23;1.30;84.60
33271;DHT22;53180;51.344;6.152;2023-04-03T05:22:51;1.40;84.80
33271;DHT22;53180;51.344;6.152;2023-04-03T05:25:19;1.30;84.80
33271;DHT22;53180;51.344;6.152;2023-04-03T05:27:48;1.30;84.80
33271;DHT22;53180;51.344;6.152;2023-04-03T05:30:17;1.40;84.80
33271;DHT22;53180;51.344;6.152;2023-04-03T05:32:46;1.30;84.70
33271;DHT22;53180;51.344;6.152;2023-04-03T05:35:16;1.30;84.70
33271;DHT22;53180;51.344;6.152;2023-04-03T05:37:45;1.40;84.80
33271;DHT22;53180;51.344;6.152;2023-04-03T05:40:13;1.40;84.90
33271;DHT22;53180;51.344;6.152;2023-04-03T05:42:44;1.40;84.80
33271;DHT22;53180;51.344;6.152;2023-04-03T05:45:12;1.50;84.50
33271;DHT22;53180;51.344;6.152;2023-04-03T05:47:41;1.50;84.60
33271;DHT22;53180;51.344;6.152;2023-04-03T05:50:10;1.50;84.70
33271;DHT22;53180;51.344;6.152;2023-04-03T05:52:42;1.60;84.60
33271;DHT22;53180;51.344;6.152;2023-04-03T05:55:12;1.70;84.50
33271;DHT22;53180;51.344;6.152;2023-04-03T05:57:41;1.70;84.30
33271;DHT22;53180;51.344;6.152;2023-04-03T06:00:12;1.80;84.40
33271;DHT22;53180;51.344;6.152;2023-04-03T06:02:42;1.90;84.20
33271;DHT22;53180;51.344;6.152;2023-04-03T06:05:11;2.00;84.20
33271;DHT22;53180;51.344;6.152;2023-04-03T06:07:41;2.10;84.00
33271;DHT22;53180;51.344;6.152;2023-04-03T06:10:11;2.20;83.70
33271;DHT22;53180;51.344;6.152;2023-04-03T06:12:40;2.30;83.00
33271;DHT22;53180;51.344;6.152;2023-04-03T06:15:09;2.40;82.80
33271;DHT22;53180;51.344;6.152;2023-04-03T06:17:38;2.60;82.40
33271;DHT22;53180;51.344;6.152;2023-04-03T06:20:07;2.90;82.00
33271;DHT22;53180;51.344;6.152;2023-04-03T06:22:36;3.10;81.10
33271;DHT22;53180;51.344;6.152;2023-04-03T06:25:07;3.30;80.70
33271;DHT22;53180;51.344;6.152;2023-04-03T06:27:37;3.50;80.20
33271;DHT22;53180;51.344;6.152;2023-04-03T06:30:07;3.70;79.70
33271;DHT22;53180;51.344;6.152;2023-04-03T06:32:36;3.80;78.90
33271;DHT22;53180;51.344;6.152;2023-04-03T06:35:05;4.00;79.30
33271;DHT22;53180;51.344;6.152;2023-04-03T06:37:35;4.10;78.30
33271;DHT22;53180;51.344;6.152;2023-04-03T06:40:06;4.20;78.20
33271;DHT22;53180;51.344;6.152;2023-04-03T06:42:37;4.20;78.50
33271;DHT22;53180;51.344;6.152;2023-04-03T06:45:07;4.30;77.60
33271;DHT22;53180;51.344;6.152;2023-04-03T06:47:36;4.50;77.40
33271;DHT22;53180;51.344;6.152;2023-04-03T06:50:06;4.60;77.50
33271;DHT22;53180;51.344;6.152;2023-04-03T06:52:35;4.60;76.40
33271;DHT22;53180;51.344;6.152;2023-04-03T06:55:06;4.70;76.50
33271;DHT22;53180;51.344;6.152;2023-04-03T06:57:34;4.70;76.50
33271;DHT22;53180;51.344;6.152;2023-04-03T07:00:05;4.80;75.40
33271;DHT22;53180;51.344;6.152;2023-04-03T07:02:35;4.90;75.80
33271;DHT22;53180;51.344;6.152;2023-04-03T07:05:04;4.90;75.40
33271;DHT22;53180;51.344;6.152;2023-04-03T07:07:34;5.00;75.50
33271;DHT22;53180;51.344;6.152;2023-04-03T07:10:02;5.10;75.50
33271;DHT22;53180;51.344;6.152;2023-04-03T07:12:32;5.20;75.50
33271;DHT22;53180;51.344;6.152;2023-04-03T07:15:01;5.20;75.00
33271;DHT22;53180;51.344;6.152;2023-04-03T07:17:29;5.30;75.40
33271;DHT22;53180;51.344;6.152;2023-04-03T07:19:58;5.30;74.20
33271;DHT22;53180;51.344;6.152;2023-04-03T07:22:26;5.30;74.10
33271;DHT22;53180;51.344;6.152;2023-04-03T07:24:54;5.40;74.50
33271;DHT22;53180;51.344;6.152;2023-04-03T07:27:23;5.50;73.60
33271;DHT22;53180;51.344;6.152;2023-04-03T07:29:53;5.50;73.80
33271;DHT22;53180;51.344;6.152;2023-04-03T07:32:22;5.60;74.40
33271;DHT22;53180;51.344;6.152;2023-04-03T07:34:51;5.60;72.70
33271;DHT22;53180;51.344;6.152;2023-04-03T07:37:19;5.50;72.60
33271;DHT22;53180;51.344;6.152;2023-04-03T07:39:47;5.40;72.90
33271;DHT22;53180;51.344;6.152;2023-04-03T07:42:15;5.50;72.60
33271;DHT22;53180;51.344;6.152;2023-04-03T07:44:44;5.60;73.50
33271;DHT22;53180;51.344;6.152;2023-04-03T07:47:14;5.70;72.80
33271;DHT22;53180;51.344;6.152;2023-04-03T07:49:43;5.80;71.80
33271;DHT22;53180;51.344;6.152;2023-04-03T07:52:12;5.80;72.00
33271;DHT22;53180;51.344;6.152;2023-04-03T07:54:41;5.80;71.20
33271;DHT22;53180;51.344;6.152;2023-04-03T07:57:10;5.80;71.00
33271;DHT22;53180;51.344;6.152;2023-04-03T07:59:38;6.00;71.90
33271;DHT22;53180;51.344;6.152;2023-04-03T08:02:09;6.10;71.30
33271;DHT22;53180;51.344;6.152;2023-04-03T08:04:39;6.20;70.90
33271;DHT22;53180;51.344;6.152;2023-04-03T08:07:07;6.40;69.80
33271;DHT22;53180;51.344;6.152;2023-04-03T08:09:36;6.50;70.20
33271;DHT22;53180;51.344;6.152;2023-04-03T08:12:04;6.50;69.30
33271;DHT22;53180;51.344;6.152;2023-04-03T08:14:33;6.70;69.80
33271;DHT22;53180;51.344;6.152;2023-04-03T08:17:02;6.70;68.40
33271;DHT22;53180;51.344;6.152;2023-04-03T08:19:32;6.70;68.20
33271;DHT22;53180;51.344;6.152;2023-04-03T08:22:01;6.70;67.10
33271;DHT22;53180;51.344;6.152;2023-04-03T08:24:30;6.80;68.90
33271;DHT22;53180;51.344;6.152;2023-04-03T08:26:59;6.80;68.50
33271;DHT22;53180;51.344;6.152;2023-04-03T08:29:27;7.10;67.40
33271;DHT22;53180;51.344;6.152;2023-04-03T08:31:57;7.20;65.90
33271;DHT22;53180;51.344;6.152;2023-04-03T08:34:26;7.30;65.60
33271;DHT22;53180;51.344;6.152;2023-04-03T08:36:54;7.40;66.70
33271;DHT22;53180;51.344;6.152;2023-04-03T08:39:24;7.50;66.70
33271;DHT22;53180;51.344;6.152;2023-04-03T08:41:52;7.60;66.50
33271;DHT22;53180;51.344;6.152;2023-04-03T08:44:24;7.70;66.20
33271;DHT22;53180;51.344;6.152;2023-04-03T08:47:04;7.70;65.00
33271;DHT22;53180;51.344;6.152;2023-04-03T08:49:42;7.70;64.70
33271;DHT22;53180;51.344;6.152;2023-04-03T08:52:17;7.80;65.30
33271;DHT22;53180;51.344;6.152;2023-04-03T08:54:53;7.90;63.70
33271;DHT22;53180;51.344;6.152;2023-04-03T08:57:28;7.90;63.50
33271;DHT22;53180;51.344;6.152;2023-04-03T09:00:02;7.70;61.80
33271;DHT22;53180;51.344;6.152;2023-04-03T09:02:39;7.70;62.50
33271;DHT22;53180;51.344;6.152;2023-04-03T09:05:13;7.80;60.10
33271;DHT22;53180;51.344;6.152;2023-04-03T09:07:46;7.90;61.00
33271;DHT22;53180;51.344;6.152;2023-04-03T09:10:24;8.10;62.80
33271;DHT22;53180;51.344;6.152;2023-04-03T09:12:59;8.20;60.10
33271;DHT22;53180;51.344;6.152;2023-04-03T09:15:30;8.20;60.40
33271;DHT22;53180;51.344;6.152;2023-04-03T09:18:11;8.10;59.50
33271;DHT22;53180;51.344;6.152;2023-04-03T09:20:47;8.10;59.70
33271;DHT22;53180;51.344;6.152;2023-04-03T09:23:24;8.10;59.30
33271;DHT22;53180;51.344;6.152;2023-04-03T09:26:02;8.30;60.50
33271;DHT22;53180;51.344;6.152;2023-04-03T09:28:35;8.20;59.70
33271;DHT22;53180;51.344;6.152;2023-04-03T09:31:21;8.40;58.80
33271;DHT22;53180;51.344;6.152;2023-04-03T09:33:54;8.50;56.70
33271;DHT22;53180;51.344;6.152;2023-04-03T09:36:42;8.50;56.00
33271;DHT22;53180;51.344;6.152;2023-04-03T09:39:15;8.50;54.70
33271;DHT22;53180;51.344;6.152;2023-04-03T09:41:58;8.50;57.30
33271;DHT22;53180;51.344;6.152;2023-04-03T09:44:30;8.70;55.40
33271;DHT22;53180;51.344;6.152;2023-04-03T09:46:59;8.80;53.00
33271;DHT22;53180;51.344;6.152;2023-04-03T09:49:28;8.90;55.20
33271;DHT22;53180;51.344;6.152;2023-04-03T09:51:56;9.10;52.90
33271;DHT22;53180;51.344;6.152;2023-04-03T09:54:36;9.10;48.70
33271;DHT22;53180;51.344;6.152;2023-04-03T09:57:11;9.20;48.00
33271;DHT22;53180;51.344;6.152;2023-04-03T09:59:44;9.20;46.70
33271;DHT22;53180;51.344;6.152;2023-04-03T10:02:32;9.20;47.00
33271;DHT22;53180;51.344;6.152;2023-04-03T10:05:05;9.30;45.70
33271;DHT22;53180;51.344;6.152;2023-04-03T10:08:08;9.30;45.20
33271;DHT22;53180;51.344;6.152;2023-04-03T10:10:39;9.50;44.00
33271;DHT22;53180;51.344;6.152;2023-04-03T10:13:11;9.40;45.60
33271;DHT22;53180;51.344;6.152;2023-04-03T10:15:51;9.50;43.90
33271;DHT22;53180;51.344;6.152;2023-04-03T10:18:30;9.40;43.40
33271;DHT22;53180;51.344;6.152;2023-04-03T10:21:05;9.40;42.40
33271;DHT22;53180;51.344;6.152;2023-04-03T10:23:56;9.40;43.60
33271;DHT22;53180;51.344;6.152;2023-04-03T10:26:37;9.50;43.60
33271;DHT22;53180;51.344;6.152;2023-04-03T10:29:20;9.50;42.70
33271;DHT22;53180;51.344;6.152;2023-04-03T10:32:01;9.80;44.30
33271;DHT22;53180;51.344;6.152;2023-04-03T10:34:40;9.80;42.00
33271;DHT22;53180;51.344;6.152;2023-04-03T10:37:26;9.80;44.20
33271;DHT22;53180;51.344;6.152;2023-04-03T10:40:14;10.00;43.30
33271;DHT22;53180;51.344;6.152;2023-04-03T10:42:50;10.00;39.70
33271;DHT22;53180;51.344;6.152;2023-04-03T10:45:28;10.00;39.90
33271;DHT22;53180;51.344;6.152;2023-04-03T10:48:04;9.80;38.50
33271;DHT22;53180;51.344;6.152;2023-04-03T10:50:42;9.80;40.40
33271;DHT22;53180;51.344;6.152;2023-04-03T10:53:20;9.90;42.20
33271;DHT22;53180;51.344;6.152;2023-04-03T10:55:57;10.20;41.70
33271;DHT22;53180;51.344;6.152;2023-04-03T10:58:31;10.30;41.60
33271;DHT22;53180;51.344;6.152;2023-04-03T11:01:07;10.30;40.70
33271;DHT22;53180;51.344;6.152;2023-04-03T11:03:38;10.30;39.60
33271;DHT22;53180;51.344;6.152;2023-04-03T11:06:11;10.40;39.10
33271;DHT22;53180;51.344;6.152;2023-04-03T11:08:45;10.50;39.30
33271;DHT22;53180;51.344;6.152;2023-04-03T11:11:19;10.60;39.50
33271;DHT22;53180;51.344;6.152;2023-04-03T11:13:54;10.60;39.40
33271;DHT22;53180;51.344;6.152;2023-04-03T11:16:27;10.60;39.10
33271;DHT22;53180;51.344;6.152;2023-04-03T11:19:02;10.60;39.40
33271;DHT22;53180;51.344;6.152;2023-04-03T11:21:36;10.90;39.00
33271;DHT22;53180;51.344;6.152;2023-04-03T11:24:16;11.00;39.90
33271;DHT22;53180;51.344;6.152;2023-04-03T11:26:49;11.10;40.10
33271;DHT22;53180;51.344;6.152;2023-04-03T11:29:22;11.30;38.80
33271;DHT22;53180;51.344;6.152;2023-04-03T11:32:11;11.40;38.60
33271;DHT22;53180;51.344;6.152;2023-04-03T11:34:51;11.40;37.20
33271;DHT22;53180;51.344;6.152;2023-04-03T11:37:28;11.50;38.60
33271;DHT22;53180;51.344;6.152;2023-04-03T11:40:02;11.70;39.00
33271;DHT22;53180;51.344;6.152;2023-04-03T11:42:37;11.40;36.40
33271;DHT22;53180;51.344;6.152;2023-04-03T11:45:34;11.60;38.50
33271;DHT22;53180;51.344;6.152;2023-04-03T11:48:48;11.70;37.10
33271;DHT22;53180;51.344;6.152;2023-04-03T11:51:40;11.70;37.20
33271;DHT22;53180;51.344;6.152;2023-04-03T11:54:47;11.60;35.70
33271;DHT22;53180;51.344;6.152;2023-04-03T11:57:45;11.60;38.60
33271;DHT22;53180;51.344;6.152;2023-04-03T12:04:10;11.40;37.40
33271;DHT22;53180;51.344;6.152;2023-04-03T12:07:00;11.70;36.50
33271;DHT22;53180;51.344;6.152;2023-04-03T12:09:59;11.80;37.70
33271;DHT22;53180;51.344;6.152;2023-04-03T12:12:32;11.70;36.30
33271;DHT22;53180;51.344;6.152;2023-04-03T12:15:26;11.80;37.60
33271;DHT22;53180;51.344;6.152;2023-04-03T12:18:41;11.70;36.70
33271;DHT22;53180;51.344;6.152;2023-04-03T12:21:12;11.80;38.40
33271;DHT22;53180;51.344;6.152;2023-04-03T12:23:59;11.90;39.00
33271;DHT22;53180;51.344;6.152;2023-04-03T12:26:33;11.80;37.10
33271;DHT22;53180;51.344;6.152;2023-04-03T12:29:17;11.70;37.20
33271;DHT22;53180;51.344;6.152;2023-04-03T12:32:00;11.80;39.60
33271;DHT22;53180;51.344;6.152;2023-04-03T12:34:45;11.90;39.30
33271;DHT22;53180;51.344;6.152;2023-04-03T12:37:39;11.80;37.20
33271;DHT22;53180;51.344;6.152;2023-04-03T12:40:20;11.70;40.50
33271;DHT22;53180;51.344;6.152;2023-04-03T12:43:04;11.60;39.40
33271;DHT22;53180;51.344;6.152;2023-04-03T12:45:44;11.50;39.90
33271;DHT22;53180;51.344;6.152;2023-04-03T12:48:16;11.50;42.70
33271;DHT22;53180;51.344;6.152;2023-04-03T12:50:47;11.50;41.70
33271;DHT22;53180;51.344;6.152;2023-04-03T12:53:19;11.40;40.80
33271;DHT22;53180;51.344;6.152;2023-04-03T12:55:54;11.30;40.70
33271;DHT22;53180;51.344;6.152;2023-04-03T12:58:24;11.20;40.30
33271;DHT22;53180;51.344;6.152;2023-04-03T13:01:01;11.20;40.30
33271;DHT22;53180;51.344;6.152;2023-04-03T13:03:31;11.20;42.30
33271;DHT22;53180;51.344;6.152;2023-04-03T13:06:01;11.20;42.40
33271;DHT22;53180;51.344;6.152;2023-04-03T13:08:31;11.00;41.70
33271;DHT22;53180;51.344;6.152;2023-04-03T13:11:02;11.00;41.30
33271;DHT22;53180;51.344;6.152;2023-04-03T13:13:34;11.00;42.30
33271;DHT22;53180;51.344;6.152;2023-04-03T13:16:08;11.00;42.00
33271;DHT22;53180;51.344;6.152;2023-04-03T13:18:38;10.90;41.00
33271;DHT22;53180;51.344;6.152;2023-04-03T13:21:12;10.80;40.40
33271;DHT22;53180;51.344;6.152;2023-04-03T13:23:46;10.80;40.30
33271;DHT22;53180;51.344;6.152;2023-04-03T13:26:25;10.80;42.70
33271;DHT22;53180;51.344;6.152;2023-04-03T13:28:59;10.80;40.80
33271;DHT22;53180;51.344;6.152;2023-04-03T13:31:31;10.80;41.90
33271;DHT22;53180;51.344;6.152;2023-04-03T13:34:05;10.80;41.60
33271;DHT22;53180;51.344;6.152;2023-04-03T13:36:36;10.90;42.30
33271;DHT22;53180;51.344;6.152;2023-04-03T13:39:23;11.00;42.30
33271;DHT22;53180;51.344;6.152;2023-04-03T13:41:55;11.00;41.50
33271;DHT22;53180;51.344;6.152;2023-04-03T13:44:32;10.90;40.90
33271;DHT22;53180;51.344;6.152;2023-04-03T13:47:17;10.70;40.50
33271;DHT22;53180;51.344;6.152;2023-04-03T13:49:59;10.80;41.30
33271;DHT22;53180;51.344;6.152;2023-04-03T13:52:32;10.90;40.70
33271;DHT22;53180;51.344;6.152;2023-04-03T13:55:17;10.80;41.40
33271;DHT22;53180;51.344;6.152;2023-04-03T13:57:55;10.70;39.10
33271;DHT22;53180;51.344;6.152;2023-04-03T14:00:35;10.70;41.00
33271;DHT22;53180;51.344;6.152;2023-04-03T14:03:16;10.70;42.20
33271;DHT22;53180;51.344;6.152;2023-04-03T14:05:47;10.80;42.80
33271;DHT22;53180;51.344;6.152;2023-04-03T14:08:15;10.70;42.30
33271;DHT22;53180;51.344;6.152;2023-04-03T14:10:51;10.70;40.90
33271;DHT22;53180;51.344;6.152;2023-04-03T14:13:20;10.60;42.70
33271;DHT22;53180;51.344;6.152;2023-04-03T14:15:49;10.70;40.80
33271;DHT22;53180;51.344;6.152;2023-04-03T14:18:20;10.60;40.90
33271;DHT22;53180;51.344;6.152;2023-04-03T14:20:50;10.70;42.50
33271;DHT22;53180;51.344;6.152;2023-04-03T14:23:18;10.80;40.60
33271;DHT22;53180;51.344;6.152;2023-04-03T14:25:46;10.70;40.00
33271;DHT22;53180;51.344;6.152;2023-04-03T14:28:18;10.70;41.70
33271;DHT22;53180;51.344;6.152;2023-04-03T14:30:49;10.70;40.70
33271;DHT22;53180;51.344;6.152;2023-04-03T14:33:21;10.60;41.00
33271;DHT22;53180;51.344;6.152;2023-04-03T14:35:50;10.60;40.90
33271;DHT22;53180;51.344;6.152;2023-04-03T14:38:25;10.60;41.90
33271;DHT22;53180;51.344;6.152;2023-04-03T14:40:56;10.50;41.20
33271;DHT22;53180;51.344;6.152;2023-04-03T14:43:43;10.50;41.30
33271;DHT22;53180;51.344;6.152;2023-04-03T14:46:14;10.50;41.30
33271;DHT22;53180;51.344;6.152;2023-04-03T14:48:45;10.50;42.70
33271;DHT22;53180;51.344;6.152;2023-04-03T14:51:14;10.40;41.60
33271;DHT22;53180;51.344;6.152;2023-04-03T14:53:43;10.40;40.80
33271;DHT22;53180;51.344;6.152;2023-04-03T14:56:13;10.30;40.10
33271;DHT22;53180;51.344;6.152;2023-04-03T14:58:45;10.20;40.30
33271;DHT22;53180;51.344;6.152;2023-04-03T15:01:17;10.10;41.20
33271;DHT22;53180;51.344;6.152;2023-04-03T15:03:46;10.20;42.10
33271;DHT22;53180;51.344;6.152;2023-04-03T15:06:15;10.20;42.50
33271;DHT22;53180;51.344;6.152;2023-04-03T15:08:44;10.20;41.30
33271;DHT22;53180;51.344;6.152;2023-04-03T15:11:14;10.10;41.60
33271;DHT22;53180;51.344;6.152;2023-04-03T15:13:44;10.20;42.20
33271;DHT22;53180;51.344;6.152;2023-04-03T15:16:16;10.10;41.00
33271;DHT22;53180;51.344;6.152;2023-04-03T15:18:47;10.00;42.50
33271;DHT22;53180;51.344;6.152;2023-04-03T15:21:15;10.00;43.40
33271;DHT22;53180;51.344;6.152;2023-04-03T15:23:44;9.90;43.10
33271;DHT22;53180;51.344;6.152;2023-04-03T15:26:12;9.90;41.50
33271;DHT22;53180;51.344;6.152;2023-04-03T15:28:42;9.90;41.90
33271;DHT22;53180;51.344;6.152;2023-04-03T15:31:15;9.90;43.30
33271;DHT22;53180;51.344;6.152;2023-04-03T15:33:44;9.90;42.00
33271;DHT22;53180;51.344;6.152;2023-04-03T15:36:12;9.80;41.20
33271;DHT22;53180;51.344;6.152;2023-04-03T15:38:59;9.70;41.90
33271;DHT22;53180;51.344;6.152;2023-04-03T15:41:27;9.70;42.30
33271;DHT22;53180;51.344;6.152;2023-04-03T15:43:56;9.60;41.80
33271;DHT22;53180;51.344;6.152;2023-04-03T15:46:26;9.60;42.90
33271;DHT22;53180;51.344;6.152;2023-04-03T15:48:55;9.60;44.50
33271;DHT22;53180;51.344;6.152;2023-04-03T15:51:23;9.60;44.40
33271;DHT22;53180;51.344;6.152;2023-04-03T15:53:52;9.50;44.40
33271;DHT22;53180;51.344;6.152;2023-04-03T15:56:20;9.50;44.90
33271;DHT22;53180;51.344;6.152;2023-04-03T15:58:49;9.50;43.80
33271;DHT22;53180;51.344;6.152;2023-04-03T16:01:17;9.50;43.00
33271;DHT22;53180;51.344;6.152;2023-04-03T16:03:47;9.40;43.30
33271;DHT22;53180;51.344;6.152;2023-04-03T16:06:17;9.30;42.90
33271;DHT22;53180;51.344;6.152;2023-04-03T16:08:46;9.30;44.20
33271;DHT22;53180;51.344;6.152;2023-04-03T16:11:15;9.20;43.70
33271;DHT22;53180;51.344;6.152;2023-04-03T16:13:44;9.30;45.60
33271;DHT22;53180;51.344;6.152;2023-04-03T16:16:12;9.20;44.10
33271;DHT22;53180;51.344;6.152;2023-04-03T16:18:41;9.20;43.80